Terminal Aerodrome Forecast
Issued by NWS

Home | Current Version | Previous Version | Text Only | Print | Product List | Glossary On
Versions: 1 2 3 4 5 6 7 8 9 10 11 12 13 14 15 16 17 18 19 20 21 22 23 24 25 26
000
FTUS43 KDLH 222300
TAFHIB
TAF
KHIB 222337Z 2300/2324 16008G19KT P6SM SKC
     FM230200 17008KT P6SM VCSH SCT035 OVC050 WS020/18035KT
     FM230700 18004KT 6SM -RA SCT018 OVC035
     FM231300 21005KT P6SM BKN015
     FM231800 24007KT P6SM SCT035=

USA.gov is the U.S. government's official web portal to all federal, state and local government web resources and services.